Time;durP1;ratioP1;P1;durP2;ratioP2;P2;SDS_P1;SDS_P2;PMS_P1;PMS_P2;Temp;Humidity;BMP_temperature;BMP_pressure;BME280_temperature;BME280_humidity;BME280_pressure;Samples;Min_cycle;Max_cycle;Signal;HPM_P1;HPM_P2
2023/06/09 04:06:50;;;;;;;;;21.67;20.67;;;;;;;;6117479;46;10000834;-59
2023/06/09 04:12:57;;;;;;;;;19.00;17.00;;;;;;;;6489762;46;8980;-59
2023/06/09 04:19:00;;;;;;;;;19.33;18.00;;;;;;;;6489943;46;8869;-60
2023/06/09 04:25:04;;;;;;;;;21.33;19.67;;;;;;;;6491181;39;8985;-60
2023/06/09 04:31:08;;;;;;;;;19.67;19.00;;;;;;;;6489569;31;9575;-59
2023/06/09 04:37:13;;;;;;;;;18.33;18.33;;;;;;;;6490016;39;9433;-61
2023/06/09 04:43:18;;;;;;;;;14.33;13.33;;;;;;;;6489668;39;9429;-61
2023/06/09 04:49:26;;;;;;;;;17.67;17.67;;;;;;;;6488705;46;8921;-60
2023/06/09 04:55:30;;;;;;;;;16.67;16.67;;;;;;;;6490661;46;8877;-60
2023/06/09 05:01:37;;;;;;;;;23.33;21.00;;;;;;;;6489147;39;8921;-62
2023/06/09 05:07:40;;;;;;;;;16.67;13.67;;;;;;;;6490226;39;10248;-60
2023/06/09 05:13:45;;;;;;;;;19.00;18.00;;;;;;;;6490260;39;8890;-60
2023/06/09 05:19:48;;;;;;;;;17.67;17.00;;;;;;;;6488511;47;8837;-60
2023/06/09 05:25:52;;;;;;;;;17.67;13.67;;;;;;;;6489739;39;8874;-59
2023/06/09 05:31:55;;;;;;;;;14.67;13.00;;;;;;;;6489308;39;9531;-61
2023/06/09 05:37:58;;;;;;;;;16.67;15.33;;;;;;;;6488931;39;8823;-61
2023/06/09 05:44:04;;;;;;;;;18.00;17.00;;;;;;;;6488747;39;8845;-60
2023/06/09 05:50:07;;;;;;;;;16.33;16.33;;;;;;;;6487312;47;9001;-60
2023/06/09 05:56:14;;;;;;;;;16.33;16.33;;;;;;;;6486951;31;8865;-62
2023/06/09 06:02:18;;;;;;;;;14.00;13.75;;;;;;;;6488788;39;9122;-60
2023/06/09 06:08:23;;;;;;;;;15.75;14.00;;;;;;;;6488395;47;8861;-60
2023/06/09 06:14:27;;;;;;;;;17.00;16.00;;;;;;;;6487709;31;8854;-60
2023/06/09 06:20:31;;;;;;;;;17.50;15.75;;;;;;;;6488180;47;8911;-61
2023/06/09 06:26:33;;;;;;;;;13.00;13.00;;;;;;;;6488825;31;8886;-61
2023/06/09 06:32:39;;;;;;;;;12.75;11.50;;;;;;;;6489294;39;8939;-64
2023/06/09 06:38:43;;;;;;;;;10.00;10.00;;;;;;;;6491006;39;9442;-60
2023/06/09 06:44:45;;;;;;;;;12.75;11.75;;;;;;;;6488992;31;8935;-61
2023/06/09 06:50:52;;;;;;;;;10.75;9.75;;;;;;;;6488070;31;8984;-61
2023/06/09 06:56:54;;;;;;;;;11.00;9.50;;;;;;;;6489193;46;8931;-60
2023/06/09 07:02:57;;;;;;;;;9.00;9.00;;;;;;;;6487483;46;8926;-61
2023/06/09 07:08:59;;;;;;;;;11.50;8.50;;;;;;;;6488945;39;8924;-60
2023/06/09 07:15:09;;;;;;;;;12.25;11.50;;;;;;;;6489649;46;8881;-61
2023/06/09 07:21:12;;;;;;;;;9.00;8.00;;;;;;;;6489890;31;8932;-60
2023/06/09 07:27:15;;;;;;;;;13.25;10.50;;;;;;;;6490045;46;8997;-61
2023/06/09 07:33:19;;;;;;;;;8.50;8.50;;;;;;;;6485869;46;8900;-62
2023/06/09 07:39:22;;;;;;;;;11.25;11.25;;;;;;;;6488384;46;8933;-61
2023/06/09 07:45:24;;;;;;;;;8.00;7.00;;;;;;;;6488579;31;8849;-59
2023/06/09 07:51:27;;;;;;;;;15.50;13.75;;;;;;;;6488639;31;8902;-63
2023/06/09 07:57:29;;;;;;;;;11.50;9.75;;;;;;;;6489959;39;8877;-61
2023/06/09 08:03:34;;;;;;;;;11.25;11.25;;;;;;;;6490162;39;9560;-65
2023/06/09 08:09:37;;;;;;;;;11.00;10.00;;;;;;;;6490564;39;8870;-61
2023/06/09 08:15:44;;;;;;;;;8.75;8.75;;;;;;;;6490348;39;8870;-61
2023/06/09 08:21:46;;;;;;;;;7.50;6.50;;;;;;;;6488811;46;8919;-63
2023/06/09 08:27:50;;;;;;;;;10.25;9.50;;;;;;;;6489988;46;8957;-60
2023/06/09 08:33:54;;;;;;;;;10.75;10.00;;;;;;;;6488224;31;9038;-60
2023/06/09 08:40:00;;;;;;;;;12.50;11.75;;;;;;;;6489266;39;8858;-61
2023/06/09 08:46:10;;;;;;;;;6.75;6.75;;;;;;;;6488491;39;8964;-61
2023/06/09 08:52:15;;;;;;;;;13.00;13.00;;;;;;;;6488890;46;8850;-60
2023/06/09 08:58:21;;;;;;;;;12.00;11.00;;;;;;;;6490020;39;9573;-62
2023/06/09 09:04:27;;;;;;;;;9.00;8.75;;;;;;;;6489105;39;8922;-63
2023/06/09 09:10:38;;;;;;;;;9.50;8.50;;;;;;;;6489535;39;8949;-61
2023/06/09 09:16:45;;;;;;;;;10.00;10.00;;;;;;;;6487871;46;8862;-60
2023/06/09 09:22:53;;;;;;;;;10.25;10.25;;;;;;;;6489576;39;8908;-61
2023/06/09 09:29:04;;;;;;;;;11.25;11.25;;;;;;;;6487814;39;8929;-61
2023/06/09 09:35:09;;;;;;;;;11.25;10.50;;;;;;;;6487232;47;8936;-61
2023/06/09 09:41:17;;;;;;;;;11.50;10.75;;;;;;;;6489649;47;8867;-63
2023/06/09 09:47:23;;;;;;;;;8.00;7.75;;;;;;;;6488541;39;8853;-61
2023/06/09 09:53:26;;;;;;;;;8.00;7.75;;;;;;;;6488556;47;8905;-61
2023/06/09 09:59:30;;;;;;;;;14.25;13.00;;;;;;;;6487504;31;8966;-59
2023/06/09 10:05:38;;;;;;;;;9.75;9.75;;;;;;;;6489472;39;8942;-61
2023/06/09 10:11:41;;;;;;;;;9.00;8.00;;;;;;;;6490419;39;8889;-61
2023/06/09 10:17:44;;;;;;;;;8.75;8.75;;;;;;;;6488993;46;9013;-63
2023/06/09 10:23:59;;;;;;;;;9.00;8.75;;;;;;;;6489450;39;9591;-62
2023/06/09 10:30:08;;;;;;;;;10.00;10.00;;;;;;;;6487728;39;8874;-62
2023/06/09 10:36:12;;;;;;;;;14.25;11.75;;;;;;;;6487102;39;8901;-61
2023/06/09 10:42:29;;;;;;;;;10.50;9.50;;;;;;;;6488692;46;8878;-62
2023/06/09 10:48:50;;;;;;;;;11.75;10.25;;;;;;;;6488959;39;8921;-60
2023/06/09 10:55:13;;;;;;;;;8.00;8.00;;;;;;;;6487876;39;9671;-60
2023/06/09 11:01:17;;;;;;;;;9.67;8.00;;;;;;;;6484462;46;8939;-61
2023/06/09 11:07:21;;;;;;;;;12.50;10.50;;;;;;;;6488948;39;8902;-61
2023/06/09 11:13:39;;;;;;;;;10.50;10.50;;;;;;;;6488940;39;8866;-61
2023/06/09 11:19:41;;;;;;;;;12.00;12.00;;;;;;;;6489043;39;8875;-61
2023/06/09 11:25:43;;;;;;;;;8.25;8.25;;;;;;;;6486264;39;8916;-60
2023/06/09 11:31:48;;;;;;;;;12.25;11.75;;;;;;;;6486871;39;9087;-61
2023/06/09 11:37:52;;;;;;;;;10.50;10.50;;;;;;;;6488506;39;8899;-61
2023/06/09 11:43:57;;;;;;;;;8.00;8.00;;;;;;;;6486822;39;8858;-62
2023/06/09 11:50:11;;;;;;;;;8.00;8.00;;;;;;;;6487649;46;9092;-61
2023/06/09 11:56:15;;;;;;;;;16.50;15.25;;;;;;;;6488564;39;8894;-60
2023/06/09 12:02:17;;;;;;;;;7.25;7.25;;;;;;;;6488442;46;8929;-62
2023/06/09 12:08:21;;;;;;;;;12.25;11.25;;;;;;;;6489009;39;8890;-61
2023/06/09 12:14:25;;;;;;;;;10.25;9.50;;;;;;;;6489120;39;8877;-59
2023/06/09 12:20:35;;;;;;;;;10.75;9.25;;;;;;;;6487415;46;8906;-61
2023/06/09 12:26:44;;;;;;;;;10.00;9.00;;;;;;;;6488537;39;8833;-61
2023/06/09 12:32:50;;;;;;;;;6.50;6.50;;;;;;;;6487591;39;8866;-61
2023/06/09 12:38:53;;;;;;;;;10.25;9.75;;;;;;;;6488370;39;8873;-61
2023/06/09 12:44:59;;;;;;;;;21.00;18.00;;;;;;;;6487285;39;8879;-61
2023/06/09 12:51:08;;;;;;;;;10.00;9.25;;;;;;;;6487318;39;8909;-61
2023/06/09 12:57:11;;;;;;;;;17.25;16.25;;;;;;;;6486425;39;9001;-61
